createdAt,value
2023-04-17T00:02:41.824Z,14.00
2023-04-17T00:07:49.613Z,12.60
2023-04-17T00:12:56.102Z,12.15
2023-04-17T00:18:04.102Z,11.57
2023-04-17T00:23:10.733Z,12.95
2023-04-17T00:28:16.946Z,12.60
2023-04-17T00:33:25.195Z,12.38
2023-04-17T00:38:31.905Z,12.40
2023-04-17T00:43:38.684Z,11.93
2023-04-17T00:48:46.689Z,14.00
2023-04-17T00:53:53.326Z,13.82
2023-04-17T00:59:00.699Z,11.93
2023-04-17T01:04:10.479Z,17.02
2023-04-17T01:09:17.536Z,13.00
2023-04-17T01:14:24.074Z,11.65
2023-04-17T01:19:33.107Z,12.05
2023-04-17T01:24:40.907Z,16.48
2023-04-17T01:29:48.625Z,13.05
2023-04-17T01:34:56.125Z,13.93
2023-04-17T01:40:07.357Z,17.38
2023-04-17T01:45:14.293Z,12.90
2023-04-17T01:50:21.171Z,13.55
2023-04-17T01:55:29.201Z,13.63
2023-04-17T02:00:35.517Z,11.27
2023-04-17T02:05:42.042Z,12.98
2023-04-17T02:10:50.160Z,14.35
2023-04-17T02:15:57.489Z,12.85
2023-04-17T02:21:27.904Z,11.98
2023-04-17T02:26:37.098Z,12.05
2023-04-17T02:31:44.938Z,11.48
2023-04-17T02:36:51.755Z,11.75
2023-04-17T02:42:02.449Z,12.23
2023-04-17T02:47:09.264Z,12.48
2023-04-17T02:52:15.637Z,11.90
2023-04-17T02:57:23.451Z,13.18
2023-04-17T03:02:32.363Z,14.10
2023-04-17T03:07:38.769Z,9.07
2023-04-17T03:12:46.718Z,11.20
2023-04-17T03:17:54.245Z,10.77
2023-04-17T03:23:01.005Z,13.00
2023-04-17T03:28:08.851Z,11.05
2023-04-17T03:33:16.702Z,13.32
2023-04-17T03:38:24.208Z,13.23
2023-04-17T03:43:33.490Z,11.35
2023-04-17T03:48:39.998Z,11.10
2023-04-17T03:53:46.626Z,15.38
2023-04-17T03:58:55.360Z,13.13
2023-04-17T04:04:03.174Z,14.27
2023-04-17T04:09:10.868Z,12.80
2023-04-17T04:14:18.742Z,12.77
2023-04-17T04:19:28.108Z,12.88
2023-04-17T04:24:35.576Z,14.68
2023-04-17T04:29:45.974Z,13.07
2023-04-17T04:34:53.476Z,14.55
2023-04-17T04:40:04.834Z,16.77
2023-04-17T04:45:13.560Z,13.35
2023-04-17T04:50:22.272Z,13.00
2023-04-17T04:55:30.938Z,11.02
2023-04-17T05:00:40.068Z,11.98
2023-04-17T05:05:50.794Z,17.63
2023-04-17T05:10:59.751Z,15.43
2023-04-17T05:16:08.627Z,15.10
2023-04-17T05:21:14.930Z,12.32
2023-04-17T05:26:22.989Z,17.58
2023-04-17T05:31:32.931Z,14.68
2023-04-17T05:36:43.103Z,17.02
2023-04-17T05:41:49.688Z,15.98
2023-04-17T05:47:00.404Z,15.93
2023-04-17T05:52:07.470Z,18.27
2023-04-17T05:57:18.515Z,16.90
2023-04-17T06:02:26.601Z,16.52
2023-04-17T06:07:36.154Z,17.95
2023-04-17T06:12:43.136Z,20.25
2023-04-17T06:22:59.735Z,20.15
2023-04-17T06:28:06.765Z,19.00
2023-04-17T06:33:15.224Z,18.25
2023-04-17T06:38:22.857Z,16.85
2023-04-17T06:43:29.215Z,19.30
2023-04-17T06:48:37.847Z,21.33
2023-04-17T06:53:44.452Z,26.15
2023-04-17T06:58:50.950Z,24.10
2023-04-17T07:03:59.330Z,19.05
2023-04-17T07:09:06.020Z,20.15
2023-04-17T07:14:12.999Z,16.83
2023-04-17T07:19:21.445Z,16.77
2023-04-17T07:24:28.158Z,20.57
2023-04-17T07:29:35.821Z,17.73
2023-04-17T07:34:43.747Z,17.45
2023-04-17T07:39:51.673Z,21.20
2023-04-17T07:44:59.313Z,18.88
2023-04-17T07:50:08.944Z,24.30
2023-04-17T07:55:15.266Z,18.60
2023-04-17T08:00:22.241Z,18.92
2023-04-17T08:05:31.203Z,20.05
2023-04-17T08:10:37.770Z,22.10
2023-04-17T08:15:44.322Z,21.00
2023-04-17T08:20:52.744Z,19.90
2023-04-17T08:25:58.946Z,18.73
2023-04-17T08:31:05.345Z,17.30
2023-04-17T08:36:14.650Z,17.27
2023-04-17T08:41:25.885Z,20.60
2023-04-17T08:46:34.972Z,18.20
2023-04-17T08:51:43.496Z,19.05
2023-04-17T08:56:50.025Z,18.88
2023-04-17T09:02:04.401Z,18.70
2023-04-17T09:07:14.131Z,18.92
2023-04-17T09:12:21.505Z,21.45
2023-04-17T09:17:38.094Z,21.33
2023-04-17T09:22:46.857Z,21.27
2023-04-17T09:27:53.204Z,20.17
2023-04-17T09:33:10.264Z,19.20
2023-04-17T09:38:18.557Z,14.88
2023-04-17T09:43:25.124Z,12.93
2023-04-17T09:48:31.764Z,14.75
2023-04-17T09:53:40.318Z,13.10
2023-04-17T09:58:46.786Z,15.50
2023-04-17T10:03:53.455Z,13.05
2023-04-17T10:09:02.244Z,15.02
2023-04-17T10:14:17.150Z,12.73
2023-04-17T10:19:31.326Z,21.98
2023-04-17T10:24:39.632Z,12.23
2023-04-17T10:29:55.501Z,12.38
2023-04-17T10:35:04.432Z,11.57
2023-04-17T10:40:15.324Z,12.43
2023-04-17T10:45:22.250Z,32.22
2023-04-17T10:50:31.158Z,13.90
2023-04-17T10:55:51.563Z,13.13
2023-04-17T11:00:58.103Z,19.92
2023-04-17T11:06:05.748Z,14.35
2023-04-17T11:11:15.471Z,12.20
2023-04-17T11:16:23.687Z,11.88
2023-04-17T11:21:30.117Z,12.45
2023-04-17T11:26:45.719Z,10.57
2023-04-17T11:31:54.986Z,11.73
2023-04-17T11:37:03.535Z,10.32
2023-04-17T11:42:11.608Z,9.93
2023-04-17T11:47:21.261Z,9.27
2023-04-17T11:52:31.150Z,15.63
2023-04-17T11:57:45.281Z,15.82
2023-04-17T12:02:52.471Z,8.85
2023-04-17T12:08:04.723Z,8.88
2023-04-17T12:13:13.812Z,13.57
2023-04-17T12:23:27.030Z,11.05
2023-04-17T12:28:35.028Z,10.70
2023-04-17T12:33:41.873Z,8.80
2023-04-17T12:38:48.358Z,7.38
2023-04-17T12:44:00.435Z,8.57
2023-04-17T12:49:07.554Z,11.23
2023-04-17T12:54:14.589Z,8.60
2023-04-17T12:59:22.808Z,8.65
2023-04-17T13:04:29.665Z,10.88
2023-04-17T13:09:36.535Z,7.68
2023-04-17T13:14:45.056Z,11.55
2023-04-17T13:19:51.503Z,8.70
2023-04-17T13:24:57.865Z,9.05
2023-04-17T13:30:06.797Z,9.43
2023-04-17T13:40:20.318Z,11.25
2023-04-17T13:45:28.218Z,8.43
2023-04-17T13:50:34.664Z,5.20
2023-04-17T13:55:41.251Z,5.80
2023-04-17T14:00:49.261Z,8.50
2023-04-17T14:05:56.991Z,7.03
2023-04-17T14:11:04.678Z,6.40
2023-04-17T14:16:12.915Z,7.20
2023-04-17T14:21:22.186Z,6.60
2023-04-17T14:26:28.700Z,11.43
2023-04-17T14:31:36.856Z,14.45
2023-04-17T14:36:43.858Z,11.50
2023-04-17T14:41:50.729Z,11.45
2023-04-17T14:46:58.885Z,10.07
2023-04-17T14:52:05.472Z,10.00
2023-04-17T14:57:12.296Z,9.75
2023-04-17T15:02:20.430Z,11.45
2023-04-17T15:07:26.995Z,8.93
2023-04-17T15:12:33.548Z,9.82
2023-04-17T15:17:42.871Z,10.07
2023-04-17T15:22:52.795Z,13.52
2023-04-17T15:27:59.046Z,12.00
2023-04-17T15:33:10.531Z,14.35
2023-04-17T15:38:16.914Z,10.73
2023-04-17T15:43:23.603Z,7.65
2023-04-17T15:48:31.659Z,8.43
2023-04-17T15:53:38.171Z,6.25
2023-04-17T15:58:45.861Z,13.13
2023-04-17T16:03:54.694Z,13.10
2023-04-17T16:09:01.961Z,9.35
2023-04-17T16:14:09.002Z,7.05
2023-04-17T16:19:17.115Z,9.55
2023-04-17T16:24:23.788Z,6.93
2023-04-17T16:29:30.798Z,12.00
2023-04-17T16:34:39.280Z,12.48
2023-04-17T16:44:52.934Z,7.00
2023-04-17T16:50:01.111Z,7.95
2023-04-17T16:55:11.272Z,10.57
2023-04-17T17:00:19.545Z,10.68
2023-04-17T17:05:28.281Z,10.57
2023-04-17T17:10:35.108Z,10.18
2023-04-17T17:15:42.326Z,12.98
2023-04-17T17:20:51.220Z,14.45
2023-04-17T17:25:57.812Z,15.25
2023-04-17T17:31:06.242Z,18.30
2023-04-17T17:36:16.556Z,16.73
2023-04-17T17:41:23.700Z,15.95
2023-04-17T17:46:30.979Z,12.20
2023-04-17T17:51:39.729Z,14.30
2023-04-17T17:56:48.203Z,11.52
2023-04-17T18:01:55.715Z,15.82
2023-04-17T18:07:06.936Z,11.98
2023-04-17T18:12:19.359Z,14.27
2023-04-17T18:17:28.239Z,12.88
2023-04-17T18:22:38.866Z,12.18
2023-04-17T18:27:46.952Z,10.30
2023-04-17T18:32:57.107Z,18.05
2023-04-17T18:38:07.719Z,9.15
2023-04-17T18:43:16.035Z,9.98
2023-04-17T18:48:27.990Z,9.00
2023-04-17T18:53:37.860Z,9.77
2023-04-17T18:58:47.673Z,9.85
2023-04-17T19:03:55.911Z,8.02
2023-04-17T19:09:12.409Z,8.32
2023-04-17T19:14:20.688Z,9.20
2023-04-17T19:19:33.280Z,12.15
2023-04-17T19:24:43.261Z,9.27
2023-04-17T19:29:51.847Z,8.80
2023-04-17T19:35:03.550Z,13.98
2023-04-17T19:40:24.455Z,11.32
2023-04-17T19:45:36.563Z,8.30
2023-04-17T19:50:45.276Z,13.60
2023-04-17T19:55:55.694Z,12.30
2023-04-17T20:01:03.940Z,18.08
2023-04-17T20:06:13.289Z,14.43
2023-04-17T20:11:24.361Z,28.27
2023-04-17T20:16:32.507Z,20.10
2023-04-17T20:21:43.916Z,13.38
2023-04-17T20:26:53.745Z,11.85
2023-04-17T20:32:03.615Z,11.43
2023-04-17T20:37:10.901Z,13.82
2023-04-17T20:42:19.749Z,15.13
2023-04-17T20:47:26.650Z,17.45
2023-04-17T20:52:33.841Z,17.77
2023-04-17T20:57:42.180Z,15.98
2023-04-17T21:02:48.802Z,12.75
2023-04-17T21:07:58.057Z,16.05
2023-04-17T21:13:06.438Z,13.65
2023-04-17T21:18:12.894Z,13.33
2023-04-17T21:23:19.340Z,13.43
2023-04-17T21:28:27.244Z,14.23
2023-04-17T21:33:33.563Z,15.32
2023-04-17T21:38:40.869Z,10.95
2023-04-17T21:43:49.353Z,13.63
2023-04-17T21:48:56.240Z,15.43
2023-04-17T21:54:02.807Z,14.63
2023-04-17T21:59:10.982Z,16.80
2023-04-17T22:04:17.290Z,15.10
2023-04-17T22:09:24.394Z,12.32
2023-04-17T22:14:32.382Z,15.38
2023-04-17T22:19:38.817Z,17.98
2023-04-17T22:25:20.818Z,16.48
2023-04-17T22:31:05.383Z,14.05
2023-04-17T22:36:49.801Z,17.60
2023-04-17T22:42:50.452Z,17.58
2023-04-17T22:49:11.593Z,18.90
2023-04-17T22:54:36.340Z,20.77
2023-04-17T23:00:18.515Z,21.13
2023-04-17T23:06:02.085Z,23.02
2023-04-17T23:11:27.153Z,23.48
2023-04-17T23:16:33.769Z,46.70
2023-04-17T23:21:41.855Z,56.30
2023-04-17T23:26:49.063Z,58.05
2023-04-17T23:31:55.728Z,41.50
2023-04-17T23:37:03.644Z,39.88
2023-04-17T23:42:10.036Z,26.27
2023-04-17T23:47:16.391Z,19.98
2023-04-17T23:52:24.076Z,17.52
2023-04-17T23:57:34.878Z,22.98
